sensor_id;sensor_type;location;lat;lon;timestamp;P1;durP1;ratioP1;P2;durP2;ratioP2
25615;SDS011;13482;48.234;13.006;2024-02-21T00:01:41;3.05;;;1.33;;
25615;SDS011;13482;48.234;13.006;2024-02-21T00:04:08;3.05;;;1.30;;
25615;SDS011;13482;48.234;13.006;2024-02-21T00:06:36;2.58;;;1.20;;
25615;SDS011;13482;48.234;13.006;2024-02-21T00:09:03;2.67;;;1.25;;
25615;SDS011;13482;48.234;13.006;2024-02-21T00:11:31;2.92;;;1.20;;
25615;SDS011;13482;48.234;13.006;2024-02-21T00:14:00;2.67;;;1.05;;
25615;SDS011;13482;48.234;13.006;2024-02-21T00:16:28;3.25;;;1.20;;
25615;SDS011;13482;48.234;13.006;2024-02-21T00:18:56;3.58;;;1.20;;
25615;SDS011;13482;48.234;13.006;2024-02-21T00:21:23;2.55;;;1.17;;
25615;SDS011;13482;48.234;13.006;2024-02-21T00:23:51;3.47;;;1.40;;
25615;SDS011;13482;48.234;13.006;2024-02-21T00:26:19;2.85;;;1.15;;
25615;SDS011;13482;48.234;13.006;2024-02-21T00:28:49;2.38;;;0.95;;
25615;SDS011;13482;48.234;13.006;2024-02-21T00:31:17;2.58;;;1.02;;
25615;SDS011;13482;48.234;13.006;2024-02-21T00:33:44;2.80;;;1.10;;
25615;SDS011;13482;48.234;13.006;2024-02-21T00:36:12;3.22;;;1.10;;
25615;SDS011;13482;48.234;13.006;2024-02-21T00:38:39;2.42;;;1.10;;
25615;SDS011;13482;48.234;13.006;2024-02-21T00:41:07;2.70;;;1.10;;
25615;SDS011;13482;48.234;13.006;2024-02-21T00:43:34;2.83;;;1.30;;
25615;SDS011;13482;48.234;13.006;2024-02-21T00:46:02;2.40;;;1.20;;
25615;SDS011;13482;48.234;13.006;2024-02-21T00:48:32;2.28;;;1.10;;
25615;SDS011;13482;48.234;13.006;2024-02-21T00:51:00;1.88;;;0.90;;
25615;SDS011;13482;48.234;13.006;2024-02-21T00:53:28;2.92;;;1.30;;
25615;SDS011;13482;48.234;13.006;2024-02-21T00:55:55;2.55;;;1.10;;
25615;SDS011;13482;48.234;13.006;2024-02-21T00:58:23;2.65;;;1.15;;
25615;SDS011;13482;48.234;13.006;2024-02-21T01:00:51;1.85;;;0.90;;
25615;SDS011;13482;48.234;13.006;2024-02-21T01:03:18;3.15;;;1.20;;
25615;SDS011;13482;48.234;13.006;2024-02-21T01:05:46;3.78;;;1.23;;
25615;SDS011;13482;48.234;13.006;2024-02-21T01:08:13;4.22;;;1.38;;
25615;SDS011;13482;48.234;13.006;2024-02-21T01:10:41;3.42;;;0.90;;
25615;SDS011;13482;48.234;13.006;2024-02-21T01:13:10;2.70;;;0.98;;
25615;SDS011;13482;48.234;13.006;2024-02-21T01:15:37;2.63;;;0.82;;
25615;SDS011;13482;48.234;13.006;2024-02-21T01:18:05;1.83;;;0.80;;
25615;SDS011;13482;48.234;13.006;2024-02-21T01:20:33;3.28;;;1.02;;
25615;SDS011;13482;48.234;13.006;2024-02-21T01:23:00;2.60;;;1.20;;
25615;SDS011;13482;48.234;13.006;2024-02-21T01:25:28;3.03;;;1.20;;
25615;SDS011;13482;48.234;13.006;2024-02-21T01:27:56;2.40;;;1.02;;
25615;SDS011;13482;48.234;13.006;2024-02-21T01:30:23;2.58;;;1.00;;
25615;SDS011;13482;48.234;13.006;2024-02-21T01:32:50;1.92;;;0.98;;
25615;SDS011;13482;48.234;13.006;2024-02-21T01:35:18;1.90;;;0.80;;
25615;SDS011;13482;48.234;13.006;2024-02-21T01:37:46;2.28;;;0.82;;
25615;SDS011;13482;48.234;13.006;2024-02-21T01:40:14;2.85;;;0.90;;
25615;SDS011;13482;48.234;13.006;2024-02-21T01:42:42;1.85;;;0.73;;
25615;SDS011;13482;48.234;13.006;2024-02-21T01:45:09;2.20;;;0.90;;
25615;SDS011;13482;48.234;13.006;2024-02-21T01:47:38;2.17;;;1.00;;
25615;SDS011;13482;48.234;13.006;2024-02-21T01:50:06;1.85;;;0.80;;
25615;SDS011;13482;48.234;13.006;2024-02-21T01:52:34;2.20;;;0.75;;
25615;SDS011;13482;48.234;13.006;2024-02-21T01:55:02;2.05;;;1.00;;
25615;SDS011;13482;48.234;13.006;2024-02-21T01:57:31;2.38;;;1.15;;
25615;SDS011;13482;48.234;13.006;2024-02-21T01:59:59;2.80;;;1.00;;
25615;SDS011;13482;48.234;13.006;2024-02-21T02:02:27;2.92;;;1.27;;
25615;SDS011;13482;48.234;13.006;2024-02-21T02:04:56;2.13;;;0.82;;
25615;SDS011;13482;48.234;13.006;2024-02-21T02:07:24;2.65;;;0.85;;
25615;SDS011;13482;48.234;13.006;2024-02-21T02:09:52;2.88;;;1.00;;
25615;SDS011;13482;48.234;13.006;2024-02-21T02:12:19;2.58;;;0.77;;
25615;SDS011;13482;48.234;13.006;2024-02-21T02:14:57;2.33;;;1.00;;
25615;SDS011;13482;48.234;13.006;2024-02-21T02:17:26;1.55;;;0.80;;
25615;SDS011;13482;48.234;13.006;2024-02-21T02:19:54;2.67;;;0.70;;
25615;SDS011;13482;48.234;13.006;2024-02-21T02:22:31;2.22;;;0.82;;
25615;SDS011;13482;48.234;13.006;2024-02-21T02:25:01;1.52;;;0.70;;
25615;SDS011;13482;48.234;13.006;2024-02-21T02:27:30;2.53;;;0.77;;
25615;SDS011;13482;48.234;13.006;2024-02-21T02:29:57;1.75;;;0.70;;
25615;SDS011;13482;48.234;13.006;2024-02-21T02:32:25;1.50;;;0.70;;
25615;SDS011;13482;48.234;13.006;2024-02-21T02:34:53;2.15;;;0.73;;
25615;SDS011;13482;48.234;13.006;2024-02-21T02:37:22;1.77;;;0.60;;
25615;SDS011;13482;48.234;13.006;2024-02-21T02:39:49;1.95;;;0.82;;
25615;SDS011;13482;48.234;13.006;2024-02-21T02:42:17;3.53;;;0.98;;
25615;SDS011;13482;48.234;13.006;2024-02-21T02:44:45;2.60;;;0.90;;
25615;SDS011;13482;48.234;13.006;2024-02-21T02:47:12;1.92;;;0.90;;
25615;SDS011;13482;48.234;13.006;2024-02-21T02:49:40;1.90;;;0.80;;
25615;SDS011;13482;48.234;13.006;2024-02-21T02:52:08;1.88;;;0.88;;
25615;SDS011;13482;48.234;13.006;2024-02-21T02:54:35;1.25;;;0.80;;
25615;SDS011;13482;48.234;13.006;2024-02-21T02:57:03;1.40;;;0.70;;
25615;SDS011;13482;48.234;13.006;2024-02-21T02:59:33;1.60;;;0.70;;
25615;SDS011;13482;48.234;13.006;2024-02-21T03:02:00;1.40;;;0.60;;
25615;SDS011;13482;48.234;13.006;2024-02-21T03:04:28;1.73;;;0.80;;
25615;SDS011;13482;48.234;13.006;2024-02-21T03:06:56;2.70;;;0.82;;
25615;SDS011;13482;48.234;13.006;2024-02-21T03:09:23;2.67;;;0.98;;
25615;SDS011;13482;48.234;13.006;2024-02-21T03:11:51;1.20;;;0.68;;
25615;SDS011;13482;48.234;13.006;2024-02-21T03:14:19;1.38;;;0.70;;
25615;SDS011;13482;48.234;13.006;2024-02-21T03:16:46;2.00;;;0.90;;
25615;SDS011;13482;48.234;13.006;2024-02-21T03:19:13;1.35;;;0.80;;
25615;SDS011;13482;48.234;13.006;2024-02-21T03:21:41;1.80;;;0.70;;
25615;SDS011;13482;48.234;13.006;2024-02-21T03:24:08;1.75;;;0.90;;
25615;SDS011;13482;48.234;13.006;2024-02-21T03:26:36;1.70;;;0.80;;
25615;SDS011;13482;48.234;13.006;2024-02-21T03:29:03;2.05;;;1.00;;
25615;SDS011;13482;48.234;13.006;2024-02-21T03:31:32;2.30;;;1.10;;
25615;SDS011;13482;48.234;13.006;2024-02-21T03:33:59;1.85;;;1.00;;
25615;SDS011;13482;48.234;13.006;2024-02-21T03:36:27;2.08;;;0.93;;
25615;SDS011;13482;48.234;13.006;2024-02-21T03:38:55;2.58;;;1.05;;
25615;SDS011;13482;48.234;13.006;2024-02-21T03:41:22;2.58;;;1.20;;
25615;SDS011;13482;48.234;13.006;2024-02-21T03:43:50;2.15;;;1.00;;
25615;SDS011;13482;48.234;13.006;2024-02-21T03:46:18;2.17;;;0.95;;
25615;SDS011;13482;48.234;13.006;2024-02-21T03:48:45;1.83;;;0.80;;
25615;SDS011;13482;48.234;13.006;2024-02-21T03:51:13;2.35;;;0.93;;
25615;SDS011;13482;48.234;13.006;2024-02-21T03:53:41;1.50;;;0.90;;
25615;SDS011;13482;48.234;13.006;2024-02-21T03:56:09;1.77;;;0.85;;
25615;SDS011;13482;48.234;13.006;2024-02-21T03:58:36;1.98;;;0.75;;
25615;SDS011;13482;48.234;13.006;2024-02-21T04:01:04;1.92;;;0.80;;
25615;SDS011;13482;48.234;13.006;2024-02-21T04:03:31;1.73;;;0.98;;
25615;SDS011;13482;48.234;13.006;2024-02-21T04:05:59;1.48;;;0.80;;
25615;SDS011;13482;48.234;13.006;2024-02-21T04:08:27;1.77;;;0.85;;
25615;SDS011;13482;48.234;13.006;2024-02-21T04:10:54;2.20;;;0.85;;
25615;SDS011;13482;48.234;13.006;2024-02-21T04:13:22;2.13;;;0.90;;
25615;SDS011;13482;48.234;13.006;2024-02-21T04:15:49;2.05;;;0.80;;
25615;SDS011;13482;48.234;13.006;2024-02-21T04:18:17;2.63;;;1.00;;
25615;SDS011;13482;48.234;13.006;2024-02-21T04:20:44;1.85;;;0.90;;
25615;SDS011;13482;48.234;13.006;2024-02-21T04:23:12;1.60;;;0.60;;
25615;SDS011;13482;48.234;13.006;2024-02-21T04:25:39;1.85;;;0.98;;
25615;SDS011;13482;48.234;13.006;2024-02-21T04:28:07;1.45;;;0.80;;
25615;SDS011;13482;48.234;13.006;2024-02-21T04:30:34;2.30;;;1.08;;
25615;SDS011;13482;48.234;13.006;2024-02-21T04:33:02;2.38;;;1.08;;
25615;SDS011;13482;48.234;13.006;2024-02-21T04:35:30;1.75;;;0.90;;
25615;SDS011;13482;48.234;13.006;2024-02-21T04:37:58;3.20;;;1.20;;
25615;SDS011;13482;48.234;13.006;2024-02-21T04:40:25;2.47;;;1.20;;
25615;SDS011;13482;48.234;13.006;2024-02-21T04:42:53;2.10;;;1.30;;
25615;SDS011;13482;48.234;13.006;2024-02-21T04:45:21;3.30;;;1.40;;
25615;SDS011;13482;48.234;13.006;2024-02-21T04:47:48;2.38;;;1.25;;
25615;SDS011;13482;48.234;13.006;2024-02-21T04:50:16;2.28;;;1.17;;
25615;SDS011;13482;48.234;13.006;2024-02-21T04:52:44;2.60;;;1.15;;
25615;SDS011;13482;48.234;13.006;2024-02-21T04:55:11;2.35;;;1.10;;
25615;SDS011;13482;48.234;13.006;2024-02-21T04:57:39;1.63;;;0.90;;
25615;SDS011;13482;48.234;13.006;2024-02-21T05:00:06;1.13;;;0.80;;
25615;SDS011;13482;48.234;13.006;2024-02-21T05:02:35;2.00;;;0.73;;
25615;SDS011;13482;48.234;13.006;2024-02-21T05:05:03;1.10;;;0.60;;
25615;SDS011;13482;48.234;13.006;2024-02-21T05:07:30;0.75;;;0.50;;
25615;SDS011;13482;48.234;13.006;2024-02-21T05:09:58;1.50;;;0.63;;
25615;SDS011;13482;48.234;13.006;2024-02-21T05:12:26;0.70;;;0.45;;
25615;SDS011;13482;48.234;13.006;2024-02-21T05:14:53;1.50;;;0.60;;
25615;SDS011;13482;48.234;13.006;2024-02-21T05:17:21;1.02;;;0.50;;
25615;SDS011;13482;48.234;13.006;2024-02-21T05:19:48;1.08;;;0.50;;
25615;SDS011;13482;48.234;13.006;2024-02-21T05:22:16;1.73;;;0.60;;
25615;SDS011;13482;48.234;13.006;2024-02-21T05:24:43;1.10;;;0.55;;
25615;SDS011;13482;48.234;13.006;2024-02-21T05:27:11;1.10;;;0.70;;
25615;SDS011;13482;48.234;13.006;2024-02-21T05:29:38;0.98;;;0.68;;
25615;SDS011;13482;48.234;13.006;2024-02-21T05:32:06;1.48;;;0.52;;
25615;SDS011;13482;48.234;13.006;2024-02-21T05:34:33;2.53;;;0.80;;
25615;SDS011;13482;48.234;13.006;2024-02-21T05:37:01;2.20;;;0.75;;
25615;SDS011;13482;48.234;13.006;2024-02-21T05:39:29;1.92;;;0.75;;
25615;SDS011;13482;48.234;13.006;2024-02-21T05:41:57;2.35;;;0.80;;
25615;SDS011;13482;48.234;13.006;2024-02-21T05:44:24;1.83;;;0.60;;
25615;SDS011;13482;48.234;13.006;2024-02-21T05:46:53;1.90;;;0.70;;
25615;SDS011;13482;48.234;13.006;2024-02-21T05:49:22;1.50;;;0.80;;
25615;SDS011;13482;48.234;13.006;2024-02-21T05:51:50;1.73;;;0.60;;
25615;SDS011;13482;48.234;13.006;2024-02-21T05:54:17;2.28;;;0.60;;
25615;SDS011;13482;48.234;13.006;2024-02-21T05:56:46;1.75;;;0.80;;
25615;SDS011;13482;48.234;13.006;2024-02-21T05:59:13;1.90;;;0.80;;
25615;SDS011;13482;48.234;13.006;2024-02-21T06:01:41;1.85;;;0.63;;
25615;SDS011;13482;48.234;13.006;2024-02-21T06:04:08;1.38;;;0.60;;
25615;SDS011;13482;48.234;13.006;2024-02-21T06:06:36;2.42;;;0.82;;
25615;SDS011;13482;48.234;13.006;2024-02-21T06:09:03;1.80;;;0.75;;
25615;SDS011;13482;48.234;13.006;2024-02-21T06:11:31;2.20;;;0.80;;
25615;SDS011;13482;48.234;13.006;2024-02-21T06:14:01;2.10;;;0.82;;
25615;SDS011;13482;48.234;13.006;2024-02-21T06:16:29;2.58;;;1.13;;
25615;SDS011;13482;48.234;13.006;2024-02-21T06:18:56;2.85;;;1.30;;
25615;SDS011;13482;48.234;13.006;2024-02-21T06:21:24;2.58;;;1.33;;
25615;SDS011;13482;48.234;13.006;2024-02-21T06:23:56;2.55;;;1.15;;
25615;SDS011;13482;48.234;13.006;2024-02-21T06:26:24;2.20;;;0.85;;
25615;SDS011;13482;48.234;13.006;2024-02-21T06:28:51;3.22;;;1.15;;
25615;SDS011;13482;48.234;13.006;2024-02-21T06:31:19;1.85;;;0.90;;
25615;SDS011;13482;48.234;13.006;2024-02-21T06:33:47;2.08;;;1.00;;
25615;SDS011;13482;48.234;13.006;2024-02-21T06:36:14;1.60;;;0.82;;
25615;SDS011;13482;48.234;13.006;2024-02-21T06:38:42;2.00;;;1.02;;
25615;SDS011;13482;48.234;13.006;2024-02-21T06:41:16;2.05;;;1.02;;
25615;SDS011;13482;48.234;13.006;2024-02-21T06:43:46;3.17;;;1.08;;
25615;SDS011;13482;48.234;13.006;2024-02-21T06:46:24;5.82;;;1.13;;
25615;SDS011;13482;48.234;13.006;2024-02-21T06:48:56;2.22;;;1.00;;
25615;SDS011;13482;48.234;13.006;2024-02-21T06:51:26;2.38;;;1.10;;
25615;SDS011;13482;48.234;13.006;2024-02-21T06:53:54;3.70;;;1.10;;
25615;SDS011;13482;48.234;13.006;2024-02-21T06:56:23;2.22;;;0.90;;
25615;SDS011;13482;48.234;13.006;2024-02-21T06:58:55;2.25;;;1.10;;
25615;SDS011;13482;48.234;13.006;2024-02-21T07:01:24;2.50;;;1.05;;
25615;SDS011;13482;48.234;13.006;2024-02-21T07:03:52;3.05;;;1.30;;
25615;SDS011;13482;48.234;13.006;2024-02-21T07:06:19;2.40;;;1.30;;
25615;SDS011;13482;48.234;13.006;2024-02-21T07:08:47;2.05;;;1.30;;
25615;SDS011;13482;48.234;13.006;2024-02-21T07:11:15;2.45;;;1.30;;
25615;SDS011;13482;48.234;13.006;2024-02-21T07:13:42;3.53;;;1.33;;
25615;SDS011;13482;48.234;13.006;2024-02-21T07:16:10;1.58;;;0.90;;
25615;SDS011;13482;48.234;13.006;2024-02-21T07:18:38;2.45;;;1.13;;
25615;SDS011;13482;48.234;13.006;2024-02-21T07:21:05;3.00;;;1.83;;
25615;SDS011;13482;48.234;13.006;2024-02-21T07:23:33;3.25;;;1.60;;
25615;SDS011;13482;48.234;13.006;2024-02-21T07:26:01;2.92;;;1.30;;
25615;SDS011;13482;48.234;13.006;2024-02-21T07:28:28;1.73;;;0.80;;
25615;SDS011;13482;48.234;13.006;2024-02-21T07:30:56;1.73;;;0.93;;
25615;SDS011;13482;48.234;13.006;2024-02-21T07:33:26;2.10;;;1.00;;
25615;SDS011;13482;48.234;13.006;2024-02-21T07:35:53;1.65;;;0.93;;
25615;SDS011;13482;48.234;13.006;2024-02-21T07:38:21;1.55;;;0.80;;
25615;SDS011;13482;48.234;13.006;2024-02-21T07:40:48;2.25;;;0.93;;
25615;SDS011;13482;48.234;13.006;2024-02-21T07:43:16;2.13;;;0.80;;
25615;SDS011;13482;48.234;13.006;2024-02-21T07:45:43;2.03;;;1.00;;
25615;SDS011;13482;48.234;13.006;2024-02-21T07:48:11;1.90;;;0.95;;
25615;SDS011;13482;48.234;13.006;2024-02-21T07:50:39;1.67;;;0.90;;
25615;SDS011;13482;48.234;13.006;2024-02-21T07:53:06;2.35;;;1.00;;
25615;SDS011;13482;48.234;13.006;2024-02-21T07:55:34;1.85;;;1.13;;
25615;SDS011;13482;48.234;13.006;2024-02-21T07:58:01;3.85;;;1.17;;
25615;SDS011;13482;48.234;13.006;2024-02-21T08:00:29;2.17;;;1.00;;
25615;SDS011;13482;48.234;13.006;2024-02-21T08:02:57;1.90;;;1.05;;
25615;SDS011;13482;48.234;13.006;2024-02-21T08:05:24;4.65;;;1.33;;
25615;SDS011;13482;48.234;13.006;2024-02-21T08:07:52;2.83;;;1.00;;
25615;SDS011;13482;48.234;13.006;2024-02-21T08:10:23;2.05;;;1.00;;
25615;SDS011;13482;48.234;13.006;2024-02-21T08:12:51;3.03;;;1.10;;
25615;SDS011;13482;48.234;13.006;2024-02-21T08:15:18;2.10;;;1.08;;
25615;SDS011;13482;48.234;13.006;2024-02-21T08:17:51;1.63;;;0.80;;
25615;SDS011;13482;48.234;13.006;2024-02-21T08:20:18;3.08;;;1.02;;
25615;SDS011;13482;48.234;13.006;2024-02-21T08:22:46;2.03;;;1.00;;
25615;SDS011;13482;48.234;13.006;2024-02-21T08:25:14;2.85;;;1.30;;
25615;SDS011;13482;48.234;13.006;2024-02-21T08:27:42;2.15;;;1.00;;
25615;SDS011;13482;48.234;13.006;2024-02-21T08:30:09;2.60;;;1.23;;
25615;SDS011;13482;48.234;13.006;2024-02-21T08:32:37;1.92;;;1.20;;
25615;SDS011;13482;48.234;13.006;2024-02-21T08:35:05;2.35;;;1.02;;
25615;SDS011;13482;48.234;13.006;2024-02-21T08:37:33;2.05;;;1.23;;
25615;SDS011;13482;48.234;13.006;2024-02-21T08:40:00;2.45;;;0.93;;
25615;SDS011;13482;48.234;13.006;2024-02-21T08:42:35;2.10;;;1.25;;
25615;SDS011;13482;48.234;13.006;2024-02-21T08:45:05;1.83;;;0.70;;
25615;SDS011;13482;48.234;13.006;2024-02-21T08:47:33;2.08;;;1.05;;
25615;SDS011;13482;48.234;13.006;2024-02-21T08:50:04;1.60;;;0.80;;
25615;SDS011;13482;48.234;13.006;2024-02-21T08:52:44;2.20;;;1.00;;
25615;SDS011;13482;48.234;13.006;2024-02-21T08:55:12;1.52;;;0.80;;
25615;SDS011;13482;48.234;13.006;2024-02-21T08:57:39;1.35;;;0.80;;
25615;SDS011;13482;48.234;13.006;2024-02-21T09:00:07;2.22;;;0.80;;
25615;SDS011;13482;48.234;13.006;2024-02-21T09:02:42;1.55;;;0.73;;
25615;SDS011;13482;48.234;13.006;2024-02-21T09:05:10;2.33;;;1.08;;
25615;SDS011;13482;48.234;13.006;2024-02-21T09:07:38;1.60;;;0.75;;
25615;SDS011;13482;48.234;13.006;2024-02-21T09:10:07;3.30;;;1.00;;
25615;SDS011;13482;48.234;13.006;2024-02-21T09:12:35;2.38;;;0.90;;
25615;SDS011;13482;48.234;13.006;2024-02-21T09:15:02;2.15;;;0.90;;
25615;SDS011;13482;48.234;13.006;2024-02-21T09:17:30;1.55;;;0.98;;
25615;SDS011;13482;48.234;13.006;2024-02-21T09:19:58;3.17;;;0.85;;
25615;SDS011;13482;48.234;13.006;2024-02-21T09:22:30;1.40;;;0.80;;
25615;SDS011;13482;48.234;13.006;2024-02-21T09:25:01;1.65;;;0.85;;
25615;SDS011;13482;48.234;13.006;2024-02-21T09:27:30;1.45;;;0.90;;
25615;SDS011;13482;48.234;13.006;2024-02-21T09:29:57;1.50;;;0.80;;
25615;SDS011;13482;48.234;13.006;2024-02-21T09:32:25;1.30;;;0.70;;
25615;SDS011;13482;48.234;13.006;2024-02-21T09:34:53;1.33;;;0.68;;
25615;SDS011;13482;48.234;13.006;2024-02-21T09:37:26;2.03;;;0.80;;
25615;SDS011;13482;48.234;13.006;2024-02-21T09:39:53;0.93;;;0.70;;
25615;SDS011;13482;48.234;13.006;2024-02-21T09:42:21;1.67;;;0.90;;
25615;SDS011;13482;48.234;13.006;2024-02-21T09:44:57;2.25;;;0.88;;
25615;SDS011;13482;48.234;13.006;2024-02-21T09:47:28;1.27;;;0.63;;
25615;SDS011;13482;48.234;13.006;2024-02-21T09:50:23;2.83;;;0.70;;
25615;SDS011;13482;48.234;13.006;2024-02-21T09:52:53;1.08;;;0.70;;
25615;SDS011;13482;48.234;13.006;2024-02-21T09:55:23;1.65;;;0.80;;
25615;SDS011;13482;48.234;13.006;2024-02-21T09:57:54;1.58;;;0.70;;
25615;SDS011;13482;48.234;13.006;2024-02-21T10:00:23;1.30;;;0.70;;
25615;SDS011;13482;48.234;13.006;2024-02-21T10:02:51;1.77;;;0.80;;
25615;SDS011;13482;48.234;13.006;2024-02-21T10:05:19;2.65;;;0.95;;
25615;SDS011;13482;48.234;13.006;2024-02-21T10:07:48;1.27;;;0.55;;
25615;SDS011;13482;48.234;13.006;2024-02-21T10:10:16;1.88;;;0.82;;
25615;SDS011;13482;48.234;13.006;2024-02-21T10:12:51;2.03;;;0.88;;
25615;SDS011;13482;48.234;13.006;2024-02-21T10:15:21;1.38;;;0.70;;
25615;SDS011;13482;48.234;13.006;2024-02-21T10:18:00;1.90;;;0.68;;
25615;SDS011;13482;48.234;13.006;2024-02-21T10:20:33;1.77;;;0.50;;
25615;SDS011;13482;48.234;13.006;2024-02-21T10:23:01;2.25;;;0.70;;
25615;SDS011;13482;48.234;13.006;2024-02-21T10:25:40;1.48;;;0.65;;
25615;SDS011;13482;48.234;13.006;2024-02-21T10:28:12;1.70;;;0.60;;
25615;SDS011;13482;48.234;13.006;2024-02-21T10:30:49;1.00;;;0.43;;
25615;SDS011;13482;48.234;13.006;2024-02-21T10:33:18;2.42;;;0.60;;
25615;SDS011;13482;48.234;13.006;2024-02-21T10:35:48;2.15;;;0.52;;
25615;SDS011;13482;48.234;13.006;2024-02-21T10:38:16;1.35;;;0.40;;
25615;SDS011;13482;48.234;13.006;2024-02-21T10:40:44;2.85;;;0.70;;
25615;SDS011;13482;48.234;13.006;2024-02-21T10:43:15;1.38;;;0.60;;
25615;SDS011;13482;48.234;13.006;2024-02-21T10:45:45;1.30;;;0.40;;
25615;SDS011;13482;48.234;13.006;2024-02-21T10:48:15;1.52;;;0.73;;
25615;SDS011;13482;48.234;13.006;2024-02-21T10:51:03;0.90;;;0.40;;
25615;SDS011;13482;48.234;13.006;2024-02-21T10:56:26;1.02;;;0.30;;
25615;SDS011;13482;48.234;13.006;2024-02-21T10:58:58;1.77;;;0.60;;
25615;SDS011;13482;48.234;13.006;2024-02-21T11:01:28;1.17;;;0.40;;
25615;SDS011;13482;48.234;13.006;2024-02-21T11:03:59;1.65;;;0.55;;
25615;SDS011;13482;48.234;13.006;2024-02-21T11:08:59;1.58;;;0.50;;
25615;SDS011;13482;48.234;13.006;2024-02-21T11:14:18;1.40;;;0.40;;
25615;SDS011;13482;48.234;13.006;2024-02-21T11:16:47;0.85;;;0.40;;
25615;SDS011;13482;48.234;13.006;2024-02-21T11:19:28;1.33;;;0.40;;
25615;SDS011;13482;48.234;13.006;2024-02-21T11:21:58;1.73;;;0.60;;
25615;SDS011;13482;48.234;13.006;2024-02-21T11:24:31;0.82;;;0.32;;
25615;SDS011;13482;48.234;13.006;2024-02-21T11:27:08;1.63;;;0.70;;
25615;SDS011;13482;48.234;13.006;2024-02-21T11:29:49;0.55;;;0.40;;
25615;SDS011;13482;48.234;13.006;2024-02-21T11:32:23;2.05;;;0.50;;
25615;SDS011;13482;48.234;13.006;2024-02-21T11:34:54;1.83;;;0.40;;
25615;SDS011;13482;48.234;13.006;2024-02-21T11:37:33;1.98;;;0.60;;
25615;SDS011;13482;48.234;13.006;2024-02-21T11:40:06;0.88;;;0.43;;
25615;SDS011;13482;48.234;13.006;2024-02-21T11:42:38;1.23;;;0.50;;
25615;SDS011;13482;48.234;13.006;2024-02-21T11:45:06;1.23;;;0.35;;
25615;SDS011;13482;48.234;13.006;2024-02-21T11:47:38;0.75;;;0.30;;
25615;SDS011;13482;48.234;13.006;2024-02-21T11:50:11;1.20;;;0.40;;
25615;SDS011;13482;48.234;13.006;2024-02-21T11:52:41;1.10;;;0.30;;
25615;SDS011;13482;48.234;13.006;2024-02-21T11:55:09;0.93;;;0.32;;
25615;SDS011;13482;48.234;13.006;2024-02-21T11:57:39;1.00;;;0.47;;
25615;SDS011;13482;48.234;13.006;2024-02-21T12:00:20;1.38;;;0.50;;
25615;SDS011;13482;48.234;13.006;2024-02-21T12:02:49;1.27;;;0.40;;
25615;SDS011;13482;48.234;13.006;2024-02-21T12:05:21;1.20;;;0.47;;
25615;SDS011;13482;48.234;13.006;2024-02-21T12:07:52;1.92;;;0.47;;
25615;SDS011;13482;48.234;13.006;2024-02-21T12:10:20;1.38;;;0.50;;
25615;SDS011;13482;48.234;13.006;2024-02-21T12:12:47;1.45;;;0.40;;
25615;SDS011;13482;48.234;13.006;2024-02-21T12:15:18;1.58;;;0.50;;
25615;SDS011;13482;48.234;13.006;2024-02-21T12:17:46;1.20;;;0.35;;
25615;SDS011;13482;48.234;13.006;2024-02-21T12:20:14;1.75;;;0.43;;
25615;SDS011;13482;48.234;13.006;2024-02-21T12:22:42;1.20;;;0.45;;
25615;SDS011;13482;48.234;13.006;2024-02-21T12:25:21;0.88;;;0.30;;
25615;SDS011;13482;48.234;13.006;2024-02-21T12:27:50;1.50;;;0.40;;
25615;SDS011;13482;48.234;13.006;2024-02-21T12:30:18;0.98;;;0.38;;
25615;SDS011;13482;48.234;13.006;2024-02-21T12:32:46;1.55;;;0.35;;
25615;SDS011;13482;48.234;13.006;2024-02-21T12:35:15;0.98;;;0.40;;
25615;SDS011;13482;48.234;13.006;2024-02-21T12:37:44;1.90;;;0.50;;
25615;SDS011;13482;48.234;13.006;2024-02-21T12:40:12;0.50;;;0.20;;
25615;SDS011;13482;48.234;13.006;2024-02-21T12:42:41;0.70;;;0.25;;
25615;SDS011;13482;48.234;13.006;2024-02-21T12:45:09;1.13;;;0.40;;
25615;SDS011;13482;48.234;13.006;2024-02-21T12:47:37;0.90;;;0.35;;
25615;SDS011;13482;48.234;13.006;2024-02-21T12:50:07;0.80;;;0.25;;
25615;SDS011;13482;48.234;13.006;2024-02-21T12:52:35;0.98;;;0.30;;
25615;SDS011;13482;48.234;13.006;2024-02-21T12:55:04;0.93;;;0.32;;
25615;SDS011;13482;48.234;13.006;2024-02-21T12:57:32;1.25;;;0.30;;
25615;SDS011;13482;48.234;13.006;2024-02-21T12:59:59;0.70;;;0.35;;
25615;SDS011;13482;48.234;13.006;2024-02-21T13:02:27;0.95;;;0.38;;
25615;SDS011;13482;48.234;13.006;2024-02-21T13:04:55;0.95;;;0.30;;
25615;SDS011;13482;48.234;13.006;2024-02-21T13:07:22;0.50;;;0.20;;
25615;SDS011;13482;48.234;13.006;2024-02-21T13:09:50;0.88;;;0.20;;
25615;SDS011;13482;48.234;13.006;2024-02-21T13:12:17;1.50;;;0.43;;
25615;SDS011;13482;48.234;13.006;2024-02-21T13:14:44;0.88;;;0.30;;
25615;SDS011;13482;48.234;13.006;2024-02-21T13:17:12;1.27;;;0.28;;
25615;SDS011;13482;48.234;13.006;2024-02-21T13:19:41;1.17;;;0.50;;
25615;SDS011;13482;48.234;13.006;2024-02-21T13:22:09;0.77;;;0.20;;
25615;SDS011;13482;48.234;13.006;2024-02-21T13:24:37;1.23;;;0.35;;
25615;SDS011;13482;48.234;13.006;2024-02-21T13:27:05;0.73;;;0.20;;
25615;SDS011;13482;48.234;13.006;2024-02-21T13:29:33;1.05;;;0.30;;
25615;SDS011;13482;48.234;13.006;2024-02-21T13:32:00;0.28;;;0.15;;
25615;SDS011;13482;48.234;13.006;2024-02-21T13:34:28;0.77;;;0.30;;
25615;SDS011;13482;48.234;13.006;2024-02-21T13:36:56;0.90;;;0.20;;
25615;SDS011;13482;48.234;13.006;2024-02-21T13:39:25;0.93;;;0.30;;
25615;SDS011;13482;48.234;13.006;2024-02-21T13:41:52;0.57;;;0.22;;
25615;SDS011;13482;48.234;13.006;2024-02-21T13:44:20;0.85;;;0.30;;
25615;SDS011;13482;48.234;13.006;2024-02-21T13:46:48;0.55;;;0.25;;
25615;SDS011;13482;48.234;13.006;2024-02-21T13:49:15;0.63;;;0.20;;
25615;SDS011;13482;48.234;13.006;2024-02-21T13:51:43;0.60;;;0.30;;
25615;SDS011;13482;48.234;13.006;2024-02-21T13:54:11;1.52;;;0.30;;
25615;SDS011;13482;48.234;13.006;2024-02-21T13:56:43;0.40;;;0.15;;
25615;SDS011;13482;48.234;13.006;2024-02-21T13:59:11;1.08;;;0.30;;
25615;SDS011;13482;48.234;13.006;2024-02-21T14:01:43;0.55;;;0.30;;
25615;SDS011;13482;48.234;13.006;2024-02-21T14:04:11;0.70;;;0.30;;
25615;SDS011;13482;48.234;13.006;2024-02-21T14:06:38;1.05;;;0.25;;
25615;SDS011;13482;48.234;13.006;2024-02-21T14:09:10;0.82;;;0.25;;
25615;SDS011;13482;48.234;13.006;2024-02-21T14:11:39;0.68;;;0.30;;
25615;SDS011;13482;48.234;13.006;2024-02-21T14:14:08;0.93;;;0.30;;
25615;SDS011;13482;48.234;13.006;2024-02-21T14:16:36;1.10;;;0.40;;
25615;SDS011;13482;48.234;13.006;2024-02-21T14:19:04;0.50;;;0.20;;
25615;SDS011;13482;48.234;13.006;2024-02-21T14:21:34;0.65;;;0.30;;
25615;SDS011;13482;48.234;13.006;2024-02-21T14:24:05;1.20;;;0.40;;
25615;SDS011;13482;48.234;13.006;2024-02-21T14:26:33;1.60;;;0.40;;
25615;SDS011;13482;48.234;13.006;2024-02-21T14:29:02;1.55;;;0.38;;
25615;SDS011;13482;48.234;13.006;2024-02-21T14:31:33;2.60;;;0.60;;
25615;SDS011;13482;48.234;13.006;2024-02-21T14:34:01;1.33;;;0.47;;
25615;SDS011;13482;48.234;13.006;2024-02-21T14:36:29;1.45;;;0.63;;
25615;SDS011;13482;48.234;13.006;2024-02-21T14:38:57;2.28;;;0.40;;
25615;SDS011;13482;48.234;13.006;2024-02-21T14:41:25;0.68;;;0.32;;
25615;SDS011;13482;48.234;13.006;2024-02-21T14:43:54;0.40;;;0.28;;
25615;SDS011;13482;48.234;13.006;2024-02-21T14:46:30;0.30;;;0.20;;
25615;SDS011;13482;48.234;13.006;2024-02-21T14:48:58;0.80;;;0.30;;
25615;SDS011;13482;48.234;13.006;2024-02-21T14:51:27;1.27;;;0.20;;